createdAt,value
2023-03-29T00:01:02.375Z,94648.40
2023-03-29T00:03:30.935Z,94648.00
2023-03-29T00:06:02.931Z,94649.40
2023-03-29T00:08:31.646Z,94644.20
2023-03-29T00:10:59.484Z,94650.00
2023-03-29T00:13:27.290Z,94653.60
2023-03-29T00:15:54.873Z,94654.60
2023-03-29T00:18:22.370Z,94652.80
2023-03-29T00:20:49.860Z,94654.20
2023-03-29T00:23:18.380Z,94656.20
2023-03-29T00:25:46.838Z,94660.80
2023-03-29T00:28:14.952Z,94656.00
2023-03-29T00:30:42.496Z,94659.20
2023-03-29T00:33:11.576Z,94660.80
2023-03-29T00:35:39.333Z,94655.20
2023-03-29T00:38:07.985Z,94659.60
2023-03-29T00:40:36.045Z,94659.40
2023-03-29T00:43:04.845Z,94661.60
2023-03-29T00:45:34.356Z,94663.20
2023-03-29T00:48:02.902Z,94659.20
2023-03-29T00:50:30.962Z,94664.60
2023-03-29T00:52:58.947Z,94661.20
2023-03-29T00:55:26.524Z,94658.00
2023-03-29T00:57:55.787Z,94657.60
2023-03-29T01:00:23.612Z,94661.00
2023-03-29T01:02:54.255Z,94660.40
2023-03-29T01:05:22.787Z,94653.20
2023-03-29T01:07:53.847Z,94652.40
2023-03-29T01:10:21.550Z,94650.00
2023-03-29T01:12:49.122Z,94652.60
2023-03-29T01:15:17.507Z,94646.80
2023-03-29T01:17:50.375Z,94645.40
2023-03-29T01:20:20.332Z,94643.60
2023-03-29T01:22:47.817Z,94651.20
2023-03-29T01:25:16.542Z,94651.40
2023-03-29T01:27:44.069Z,94647.20
2023-03-29T01:30:12.102Z,94649.60
2023-03-29T01:32:39.657Z,94649.40
2023-03-29T01:35:10.510Z,94648.40
2023-03-29T01:37:38.051Z,94648.20
2023-03-29T01:40:06.453Z,94657.20
2023-03-29T01:42:34.196Z,94661.80
2023-03-29T01:45:03.165Z,94664.80
2023-03-29T01:47:31.220Z,94661.60
2023-03-29T01:50:01.095Z,94669.00
2023-03-29T01:52:29.040Z,94675.20
2023-03-29T01:54:56.572Z,94668.00
2023-03-29T01:57:25.571Z,94670.40
2023-03-29T01:59:53.155Z,94670.80
2023-03-29T02:02:20.777Z,94669.60
2023-03-29T02:04:50.215Z,94664.40
2023-03-29T02:07:17.915Z,94664.40
2023-03-29T02:09:47.133Z,94665.00
2023-03-29T02:12:15.324Z,94665.60
2023-03-29T02:14:43.326Z,94657.40
2023-03-29T02:17:10.800Z,94661.00
2023-03-29T02:19:39.395Z,94662.60
2023-03-29T02:22:07.043Z,94662.20
2023-03-29T02:24:34.530Z,94660.60
2023-03-29T02:27:02.414Z,94660.00
2023-03-29T02:29:32.370Z,94659.80
2023-03-29T02:32:00.260Z,94663.80
2023-03-29T02:34:29.106Z,94661.80
2023-03-29T02:36:56.770Z,94658.00
2023-03-29T02:39:25.488Z,94667.00
2023-03-29T02:41:53.258Z,94667.00
2023-03-29T02:44:20.763Z,94664.40
2023-03-29T02:46:49.016Z,94668.40
2023-03-29T02:49:16.724Z,94661.80
2023-03-29T02:51:44.367Z,94663.40
2023-03-29T02:54:12.750Z,94666.60
2023-03-29T02:56:41.698Z,94668.20
2023-03-29T02:59:09.806Z,94666.80
2023-03-29T03:01:37.381Z,94670.80
2023-03-29T03:04:05.011Z,94668.00
2023-03-29T03:06:33.724Z,94667.80
2023-03-29T03:09:02.138Z,94667.80
2023-03-29T03:11:29.819Z,94673.20
2023-03-29T03:13:57.448Z,94668.60
2023-03-29T03:16:25.426Z,94670.00
2023-03-29T03:18:54.945Z,94676.60
2023-03-29T03:21:22.580Z,94676.60
2023-03-29T03:23:50.165Z,94675.60
2023-03-29T03:26:18.323Z,94673.00
2023-03-29T03:28:46.257Z,94681.20
2023-03-29T03:31:14.085Z,94679.60
2023-03-29T03:33:42.975Z,94683.40
2023-03-29T03:36:11.283Z,94683.40
2023-03-29T03:38:41.442Z,94680.20
2023-03-29T03:41:09.522Z,94680.40
2023-03-29T03:43:37.384Z,94683.60
2023-03-29T03:46:05.770Z,94684.80
2023-03-29T03:48:34.030Z,94683.00
2023-03-29T03:51:01.968Z,94682.00
2023-03-29T03:53:29.904Z,94679.40
2023-03-29T03:55:58.977Z,94683.20
2023-03-29T03:58:27.247Z,94690.40
2023-03-29T04:00:55.119Z,94693.40
2023-03-29T04:03:25.941Z,94696.20
2023-03-29T04:05:53.637Z,94698.60
2023-03-29T04:08:22.592Z,94695.20
2023-03-29T04:10:50.728Z,94695.80
2023-03-29T04:13:18.559Z,94696.80
2023-03-29T04:15:55.017Z,94696.40
2023-03-29T04:18:28.645Z,94697.40
2023-03-29T04:20:59.163Z,94698.00
2023-03-29T04:23:29.258Z,94699.00
2023-03-29T04:25:57.431Z,94693.00
2023-03-29T04:28:26.186Z,94692.60
2023-03-29T04:30:55.558Z,94695.00
2023-03-29T04:33:23.735Z,94697.00
2023-03-29T04:35:59.334Z,94696.40
2023-03-29T04:38:29.201Z,94694.60
2023-03-29T04:40:57.251Z,94693.40
2023-03-29T04:43:27.932Z,94692.20
2023-03-29T04:46:16.134Z,94695.00
2023-03-29T04:48:45.818Z,94696.20
2023-03-29T04:51:14.513Z,94698.00
2023-03-29T04:53:44.175Z,94695.40
2023-03-29T04:56:11.851Z,94700.80
2023-03-29T04:58:41.442Z,94702.00
2023-03-29T05:01:13.612Z,94701.20
2023-03-29T05:03:42.619Z,94703.00
2023-03-29T05:06:10.535Z,94698.80
2023-03-29T05:08:39.435Z,94694.60
2023-03-29T05:11:07.121Z,94699.40
2023-03-29T05:13:34.871Z,94693.00
2023-03-29T05:16:02.789Z,94696.80
2023-03-29T05:18:30.352Z,94689.60
2023-03-29T05:20:58.051Z,94690.20
2023-03-29T05:23:25.829Z,94692.00
2023-03-29T05:25:53.693Z,94697.00
2023-03-29T05:28:21.594Z,94696.80
2023-03-29T05:30:49.507Z,94698.80
2023-03-29T05:33:17.621Z,94696.40
2023-03-29T05:35:45.439Z,94697.20
2023-03-29T05:38:13.864Z,94696.60
2023-03-29T05:40:44.486Z,94693.80
2023-03-29T05:43:12.580Z,94704.80
2023-03-29T05:45:40.300Z,94705.80
2023-03-29T05:48:10.108Z,94703.60
2023-03-29T05:50:39.607Z,94699.60
2023-03-29T05:53:08.517Z,94696.20
2023-03-29T05:55:36.337Z,94693.80
2023-03-29T05:58:04.427Z,94688.20
2023-03-29T06:00:34.545Z,94692.80
2023-03-29T06:03:13.616Z,94692.20
2023-03-29T06:05:49.132Z,94695.60
2023-03-29T06:08:17.440Z,94694.80
2023-03-29T06:10:45.738Z,94693.80
2023-03-29T06:13:14.052Z,94699.20
2023-03-29T06:15:41.785Z,94700.40
2023-03-29T06:18:09.967Z,94691.40
2023-03-29T06:20:38.334Z,94689.80
2023-03-29T06:23:05.892Z,94690.60
2023-03-29T06:25:35.324Z,94692.60
2023-03-29T06:28:04.267Z,94693.80
2023-03-29T06:30:32.182Z,94687.60
2023-03-29T06:33:05.535Z,94687.60
2023-03-29T06:35:38.506Z,94695.20
2023-03-29T06:38:11.450Z,94696.60
2023-03-29T06:40:40.659Z,94702.00
2023-03-29T06:43:09.085Z,94702.60
2023-03-29T06:45:36.768Z,94705.60
2023-03-29T06:48:04.858Z,94708.40
2023-03-29T06:50:32.932Z,94707.20
2023-03-29T06:53:01.976Z,94714.60
2023-03-29T06:55:30.338Z,94707.40
2023-03-29T06:58:02.701Z,94709.60
2023-03-29T07:00:31.015Z,94713.60
2023-03-29T07:03:01.641Z,94707.80
2023-03-29T07:05:30.537Z,94712.20
2023-03-29T07:08:02.230Z,94719.20
2023-03-29T07:10:33.004Z,94714.40
2023-03-29T07:13:01.684Z,94712.20
2023-03-29T07:15:29.956Z,94713.20
2023-03-29T07:17:58.061Z,94715.80
2023-03-29T07:20:27.281Z,94710.00
2023-03-29T07:22:55.014Z,94712.20
2023-03-29T07:25:24.731Z,94716.00
2023-03-29T07:27:54.574Z,94715.20
2023-03-29T07:30:23.030Z,94719.40
2023-03-29T07:32:51.543Z,94725.20
2023-03-29T07:35:19.800Z,94721.20
2023-03-29T07:37:48.244Z,94722.60
2023-03-29T07:40:26.031Z,94724.80
2023-03-29T07:43:08.137Z,94724.00
2023-03-29T07:45:37.654Z,94721.60
2023-03-29T07:48:05.975Z,94719.20
2023-03-29T07:50:34.565Z,94720.60
2023-03-29T07:53:03.187Z,94712.00
2023-03-29T07:55:31.516Z,94713.20
2023-03-29T07:58:00.135Z,94712.40
2023-03-29T08:00:29.222Z,94713.80
2023-03-29T08:02:59.856Z,94709.00
2023-03-29T08:05:40.632Z,94710.20
2023-03-29T08:08:09.984Z,94707.20
2023-03-29T08:10:39.060Z,94699.40
2023-03-29T08:13:10.537Z,94696.40
2023-03-29T08:15:39.561Z,94693.20
2023-03-29T08:18:07.449Z,94694.40
2023-03-29T08:20:35.387Z,94686.60
2023-03-29T08:23:07.609Z,94678.20
2023-03-29T08:25:37.069Z,94679.80
2023-03-29T08:28:05.876Z,94673.80
2023-03-29T08:30:50.285Z,94679.60
2023-03-29T08:33:18.576Z,94676.20
2023-03-29T08:35:47.145Z,94670.60
2023-03-29T08:38:14.941Z,94663.20
2023-03-29T08:40:42.656Z,94662.40
2023-03-29T08:43:10.262Z,94656.80
2023-03-29T08:45:38.105Z,94657.80
2023-03-29T08:48:05.678Z,94655.40
2023-03-29T08:50:33.357Z,94653.20
2023-03-29T08:53:02.134Z,94656.40
2023-03-29T08:55:33.393Z,94651.80
2023-03-29T08:58:02.413Z,94653.40
2023-03-29T09:00:30.572Z,94648.60
2023-03-29T09:03:01.225Z,94646.80
2023-03-29T09:05:28.895Z,94647.20
2023-03-29T09:07:57.099Z,94648.80
2023-03-29T09:10:28.941Z,94648.40
2023-03-29T09:12:57.539Z,94642.40
2023-03-29T09:15:25.945Z,94639.80
2023-03-29T09:17:54.761Z,94638.20
2023-03-29T09:20:23.772Z,94634.80
2023-03-29T09:22:51.453Z,94633.40
2023-03-29T09:25:24.236Z,94632.40
2023-03-29T09:27:52.307Z,94629.20
2023-03-29T09:30:27.586Z,94630.40
2023-03-29T09:32:55.330Z,94631.80
2023-03-29T09:35:24.160Z,94633.40
2023-03-29T09:37:54.397Z,94633.80
2023-03-29T09:40:22.830Z,94630.80
2023-03-29T09:42:51.573Z,94629.40
2023-03-29T09:45:20.383Z,94627.20
2023-03-29T09:47:48.907Z,94626.20
2023-03-29T09:50:29.679Z,94626.40
2023-03-29T09:52:59.696Z,94624.80
2023-03-29T09:55:31.016Z,94624.40
2023-03-29T09:57:59.326Z,94621.80
2023-03-29T10:00:28.236Z,94622.20
2023-03-29T10:02:57.153Z,94624.60
2023-03-29T10:05:25.211Z,94621.80
2023-03-29T10:07:52.806Z,94618.20
2023-03-29T10:10:20.541Z,94614.20
2023-03-29T10:12:50.399Z,94614.60
2023-03-29T10:15:29.089Z,94614.20
2023-03-29T10:17:58.007Z,94615.00
2023-03-29T10:20:26.722Z,94615.80
2023-03-29T10:22:54.882Z,94614.00
2023-03-29T10:25:31.453Z,94611.00
2023-03-29T10:27:59.091Z,94606.80
2023-03-29T10:30:27.226Z,94603.60
2023-03-29T10:32:57.350Z,94606.40
2023-03-29T10:35:25.136Z,94603.00
2023-03-29T10:37:53.168Z,94603.60
2023-03-29T10:40:22.224Z,94611.60
2023-03-29T10:42:50.470Z,94609.60
2023-03-29T10:45:18.041Z,94609.80
2023-03-29T10:47:46.488Z,94606.40
2023-03-29T10:50:15.149Z,94606.20
2023-03-29T10:52:43.451Z,94607.60
2023-03-29T10:55:11.124Z,94603.80
2023-03-29T10:57:39.002Z,94598.40
2023-03-29T11:00:07.066Z,94602.60
2023-03-29T11:02:34.686Z,94602.20
2023-03-29T11:05:03.152Z,94592.40
2023-03-29T11:07:31.720Z,94595.40
2023-03-29T11:09:59.410Z,94594.20
2023-03-29T11:12:27.259Z,94593.60
2023-03-29T11:14:54.869Z,94593.60
2023-03-29T11:17:22.649Z,94595.60
2023-03-29T11:19:50.353Z,94593.20
2023-03-29T11:22:18.075Z,94590.20
2023-03-29T11:24:47.153Z,94584.80
2023-03-29T11:27:14.872Z,94587.40
2023-03-29T11:29:50.090Z,94583.80
2023-03-29T11:32:19.069Z,94581.00
2023-03-29T11:34:49.339Z,94574.80
2023-03-29T11:37:20.838Z,94575.60
2023-03-29T11:39:49.421Z,94578.60
2023-03-29T11:42:18.521Z,94572.80
2023-03-29T11:44:54.796Z,94572.80
2023-03-29T11:47:24.127Z,94574.40
2023-03-29T11:49:54.692Z,94571.20
2023-03-29T11:52:22.702Z,94569.40
2023-03-29T11:54:52.727Z,94567.20
2023-03-29T11:57:22.724Z,94568.20
2023-03-29T11:59:52.220Z,94569.20
2023-03-29T12:02:20.316Z,94565.20
2023-03-29T12:04:49.707Z,94562.00
2023-03-29T12:07:19.121Z,94564.40
2023-03-29T12:09:48.198Z,94568.40
2023-03-29T12:12:16.674Z,94564.60
2023-03-29T12:14:44.925Z,94565.80
2023-03-29T12:17:13.798Z,94560.40
2023-03-29T12:19:43.933Z,94554.60
2023-03-29T12:22:11.579Z,94555.80
2023-03-29T12:24:41.722Z,94553.20
2023-03-29T12:27:12.632Z,94547.60
2023-03-29T12:29:40.941Z,94546.40
2023-03-29T12:32:26.599Z,94535.20
2023-03-29T12:35:00.646Z,94533.60
2023-03-29T12:37:48.397Z,94532.20
2023-03-29T12:40:17.901Z,94527.60
2023-03-29T12:42:54.824Z,94527.80
2023-03-29T12:45:25.806Z,94522.80
2023-03-29T12:47:53.713Z,94520.80
2023-03-29T12:50:21.529Z,94523.20
2023-03-29T12:52:50.177Z,94519.60
2023-03-29T12:55:18.990Z,94519.20
2023-03-29T12:57:48.754Z,94520.60
2023-03-29T13:00:21.062Z,94518.40
2023-03-29T13:02:57.924Z,94515.00
2023-03-29T13:05:25.577Z,94514.40
2023-03-29T13:08:15.290Z,94512.00
2023-03-29T13:10:43.158Z,94510.20
2023-03-29T13:13:12.617Z,94509.80
2023-03-29T13:15:42.761Z,94513.60
2023-03-29T13:18:32.440Z,94510.20
2023-03-29T13:21:38.882Z,94503.80
2023-03-29T13:24:10.775Z,94502.20
2023-03-29T13:26:48.032Z,94500.80
2023-03-29T13:29:17.722Z,94498.80
2023-03-29T13:31:51.823Z,94495.80
2023-03-29T13:34:20.405Z,94494.20
2023-03-29T13:36:49.000Z,94496.40
2023-03-29T13:39:17.010Z,94499.20
2023-03-29T13:41:54.321Z,94494.60
2023-03-29T13:44:22.625Z,94492.20
2023-03-29T13:46:53.073Z,94491.80
2023-03-29T13:49:20.787Z,94492.40
2023-03-29T13:51:48.509Z,94488.20
2023-03-29T13:54:16.658Z,94489.20
2023-03-29T13:56:44.380Z,94485.00
2023-03-29T13:59:12.061Z,94486.60
2023-03-29T14:01:40.892Z,94484.60
2023-03-29T14:04:08.538Z,94484.20
2023-03-29T14:06:36.900Z,94483.40
2023-03-29T14:09:06.684Z,94476.60
2023-03-29T14:11:34.622Z,94478.00
2023-03-29T14:14:03.654Z,94476.00
2023-03-29T14:16:31.755Z,94474.60
2023-03-29T14:19:03.846Z,94470.60
2023-03-29T14:21:34.370Z,94470.40
2023-03-29T14:24:02.083Z,94468.20
2023-03-29T14:26:31.808Z,94470.20
2023-03-29T14:29:02.382Z,94467.80
2023-03-29T14:31:32.744Z,94466.80
2023-03-29T14:34:01.150Z,94469.40
2023-03-29T14:36:29.015Z,94462.80
2023-03-29T14:38:58.011Z,94463.60
2023-03-29T14:41:25.573Z,94466.40
2023-03-29T14:43:53.067Z,94462.40
2023-03-29T14:46:20.600Z,94465.40
2023-03-29T14:48:49.502Z,94466.80
2023-03-29T14:51:17.750Z,94460.20
2023-03-29T14:53:47.301Z,94459.80
2023-03-29T14:56:16.179Z,94460.40
2023-03-29T14:58:47.155Z,94455.80
2023-03-29T15:01:14.888Z,94459.80
2023-03-29T15:03:46.998Z,94458.20
2023-03-29T15:06:15.210Z,94456.80
2023-03-29T15:08:51.079Z,94457.20
2023-03-29T15:11:30.839Z,94454.00
2023-03-29T15:14:01.456Z,94453.40
2023-03-29T15:16:30.588Z,94451.60
2023-03-29T15:19:00.849Z,94451.00
2023-03-29T15:21:32.739Z,94452.40
2023-03-29T15:24:00.589Z,94454.80
2023-03-29T15:26:30.400Z,94450.20
2023-03-29T15:29:00.575Z,94450.60
2023-03-29T15:31:29.610Z,94449.60
2023-03-29T15:33:57.592Z,94451.00
2023-03-29T15:36:26.727Z,94452.00
2023-03-29T15:38:55.046Z,94441.00
2023-03-29T15:41:23.028Z,94438.60
2023-03-29T15:43:51.127Z,94431.20
2023-03-29T15:46:18.901Z,94434.80
2023-03-29T15:48:47.038Z,94425.60
2023-03-29T15:51:15.616Z,94424.20
2023-03-29T15:53:44.475Z,94423.80
2023-03-29T15:56:14.410Z,94419.40
2023-03-29T15:58:44.009Z,94415.00
2023-03-29T16:01:13.379Z,94407.00
2023-03-29T16:03:41.802Z,94408.20
2023-03-29T16:06:12.906Z,94412.40
2023-03-29T16:08:42.929Z,94411.20
2023-03-29T16:11:11.809Z,94410.00
2023-03-29T16:13:42.127Z,94412.40
2023-03-29T16:16:11.198Z,94410.40
2023-03-29T16:18:39.773Z,94407.00
2023-03-29T16:21:08.401Z,94403.20
2023-03-29T16:23:37.165Z,94395.60
2023-03-29T16:26:05.404Z,94395.60
2023-03-29T16:28:34.032Z,94388.80
2023-03-29T16:31:04.197Z,94391.00
2023-03-29T16:33:32.428Z,94387.00
2023-03-29T16:36:01.273Z,94390.20
2023-03-29T16:38:29.537Z,94392.00
2023-03-29T16:40:59.615Z,94393.80
2023-03-29T16:43:27.805Z,94397.40
2023-03-29T16:45:55.701Z,94391.20
2023-03-29T16:48:23.900Z,94395.60
2023-03-29T16:50:52.247Z,94398.60
2023-03-29T16:53:25.370Z,94404.80
2023-03-29T16:55:55.065Z,94407.40
2023-03-29T16:58:23.895Z,94406.40
2023-03-29T17:00:55.795Z,94405.60
2023-03-29T17:03:23.647Z,94405.80
2023-03-29T17:05:51.989Z,94409.60
2023-03-29T17:08:20.790Z,94411.80
2023-03-29T17:10:50.121Z,94415.20
2023-03-29T17:13:17.841Z,94417.20
2023-03-29T17:15:46.595Z,94410.00
2023-03-29T17:18:15.769Z,94402.00
2023-03-29T17:20:44.196Z,94405.20
2023-03-29T17:23:12.393Z,94402.60
2023-03-29T17:25:43.379Z,94409.00
2023-03-29T17:28:12.826Z,94412.80
2023-03-29T17:30:42.381Z,94428.00
2023-03-29T17:33:12.750Z,94432.80
2023-03-29T17:35:40.950Z,94432.60
2023-03-29T17:38:10.631Z,94430.60
2023-03-29T17:40:39.415Z,94431.20
2023-03-29T17:43:07.240Z,94432.60
2023-03-29T17:45:35.608Z,94433.80
2023-03-29T17:48:06.172Z,94430.80
2023-03-29T17:50:38.628Z,94437.60
2023-03-29T17:53:19.521Z,94440.00
2023-03-29T17:55:50.079Z,94445.80
2023-03-29T17:58:18.682Z,94448.40
2023-03-29T18:00:46.668Z,94449.80
2023-03-29T18:03:15.260Z,94449.40
2023-03-29T18:05:43.329Z,94454.40
2023-03-29T18:08:13.500Z,94455.40
2023-03-29T18:10:41.884Z,94461.20
2023-03-29T18:13:14.715Z,94469.00
2023-03-29T18:15:45.154Z,94469.60
2023-03-29T18:18:16.107Z,94471.00
2023-03-29T18:20:44.699Z,94478.20
2023-03-29T18:23:13.383Z,94476.60
2023-03-29T18:25:42.025Z,94481.80
2023-03-29T18:28:09.917Z,94482.60
2023-03-29T18:30:38.109Z,94481.20
2023-03-29T18:33:06.209Z,94481.00
2023-03-29T18:35:34.797Z,94480.60
2023-03-29T18:38:03.523Z,94488.20
2023-03-29T18:40:32.163Z,94491.40
2023-03-29T18:43:00.608Z,94497.00
2023-03-29T18:45:28.682Z,94493.40
2023-03-29T18:47:56.595Z,94491.40
2023-03-29T18:50:27.197Z,94485.20
2023-03-29T18:52:55.082Z,94484.00
2023-03-29T18:55:22.862Z,94483.20
2023-03-29T18:57:52.929Z,94482.80
2023-03-29T19:00:20.544Z,94490.60
2023-03-29T19:02:48.413Z,94484.80
2023-03-29T19:05:16.668Z,94489.20
2023-03-29T19:07:44.354Z,94485.60
2023-03-29T19:10:12.606Z,94486.40
2023-03-29T19:12:41.407Z,94487.80
2023-03-29T19:15:09.161Z,94486.60
2023-03-29T19:17:37.079Z,94486.40
2023-03-29T19:20:11.644Z,94491.80
2023-03-29T19:22:39.202Z,94500.20
2023-03-29T19:25:06.865Z,94501.00
2023-03-29T19:27:34.645Z,94501.40
2023-03-29T19:30:02.367Z,94502.40
2023-03-29T19:32:33.678Z,94501.60
2023-03-29T19:35:02.094Z,94490.60
2023-03-29T19:37:29.620Z,94489.00
2023-03-29T19:39:57.228Z,94479.80
2023-03-29T19:42:24.991Z,94479.40
2023-03-29T19:44:52.552Z,94489.80
2023-03-29T19:47:20.330Z,94494.60
2023-03-29T19:49:52.149Z,94487.60
2023-03-29T19:52:20.417Z,94481.60
2023-03-29T19:54:48.354Z,94473.60
2023-03-29T19:57:16.557Z,94472.00
2023-03-29T19:59:47.349Z,94467.00
2023-03-29T20:02:17.208Z,94469.40
2023-03-29T20:04:47.088Z,94475.60
2023-03-29T20:07:17.160Z,94472.40
2023-03-29T20:09:45.406Z,94464.80
2023-03-29T20:12:14.456Z,94463.80
2023-03-29T20:14:46.519Z,94460.80
2023-03-29T20:17:14.200Z,94455.80
2023-03-29T20:19:44.229Z,94458.00
2023-03-29T20:22:11.804Z,94459.40
2023-03-29T20:24:39.672Z,94468.80
2023-03-29T20:27:07.335Z,94473.80
2023-03-29T20:29:35.565Z,94478.00
2023-03-29T20:32:03.174Z,94472.60
2023-03-29T20:34:31.248Z,94474.00
2023-03-29T20:37:01.251Z,94474.00
2023-03-29T20:39:29.675Z,94475.40
2023-03-29T20:41:57.199Z,94480.20
2023-03-29T20:44:26.399Z,94488.40
2023-03-29T20:47:04.301Z,94491.20
2023-03-29T20:49:37.592Z,94491.80
2023-03-29T20:52:08.345Z,94488.00
2023-03-29T20:54:37.106Z,94492.60
2023-03-29T20:57:04.819Z,94490.80
2023-03-29T20:59:34.968Z,94486.40
2023-03-29T21:02:02.603Z,94489.20
2023-03-29T21:04:30.780Z,94482.80
2023-03-29T21:07:01.665Z,94478.40
2023-03-29T21:09:31.202Z,94475.40
2023-03-29T21:12:01.064Z,94460.00
2023-03-29T21:14:30.360Z,94467.60
2023-03-29T21:16:58.139Z,94461.00
2023-03-29T21:19:25.723Z,94459.40
2023-03-29T21:21:54.981Z,94455.80
2023-03-29T21:24:22.576Z,94451.20
2023-03-29T21:26:51.447Z,94457.80
2023-03-29T21:29:19.096Z,94452.40
2023-03-29T21:31:46.708Z,94450.20
2023-03-29T21:34:15.276Z,94448.40
2023-03-29T21:36:42.978Z,94446.60
2023-03-29T21:39:10.542Z,94449.00
2023-03-29T21:41:38.071Z,94448.80
2023-03-29T21:44:05.695Z,94453.80
2023-03-29T21:46:33.570Z,94458.20
2023-03-29T21:49:01.189Z,94457.00
2023-03-29T21:51:28.816Z,94458.00
2023-03-29T21:53:56.414Z,94457.40
2023-03-29T21:56:24.123Z,94444.80
2023-03-29T21:58:51.734Z,94442.60
2023-03-29T22:01:19.282Z,94449.20
2023-03-29T22:03:47.780Z,94461.00
2023-03-29T22:06:15.350Z,94453.00
2023-03-29T22:08:43.001Z,94453.20
2023-03-29T22:11:11.073Z,94437.20
2023-03-29T22:13:39.021Z,94453.80
2023-03-29T22:16:09.044Z,94448.40
2023-03-29T22:18:43.146Z,94441.80
2023-03-29T22:21:11.137Z,94436.20
2023-03-29T22:23:38.702Z,94438.40
2023-03-29T22:26:07.017Z,94444.40
2023-03-29T22:28:35.388Z,94441.80
2023-03-29T22:31:03.141Z,94443.40
2023-03-29T22:33:31.030Z,94435.80
2023-03-29T22:35:58.695Z,94435.40
2023-03-29T22:38:26.355Z,94420.60
2023-03-29T22:40:53.900Z,94421.20
2023-03-29T22:43:21.605Z,94418.60
2023-03-29T22:45:49.171Z,94422.00
2023-03-29T22:48:17.213Z,94432.80
2023-03-29T22:50:44.721Z,94430.40
2023-03-29T22:53:12.330Z,94422.20
2023-03-29T22:55:39.960Z,94429.40
2023-03-29T22:58:07.494Z,94429.00
2023-03-29T23:00:34.974Z,94421.20
2023-03-29T23:03:03.009Z,94420.40
2023-03-29T23:05:30.992Z,94420.80
2023-03-29T23:07:58.496Z,94416.20
2023-03-29T23:10:30.596Z,94416.00
2023-03-29T23:13:10.949Z,94413.80
2023-03-29T23:15:38.555Z,94421.20
2023-03-29T23:18:06.250Z,94414.20
2023-03-29T23:20:33.812Z,94410.40
2023-03-29T23:23:01.453Z,94411.60
2023-03-29T23:25:30.065Z,94415.40
2023-03-29T23:27:57.549Z,94417.60
2023-03-29T23:30:25.284Z,94411.40
2023-03-29T23:32:53.513Z,94413.00
2023-03-29T23:35:22.801Z,94406.00
2023-03-29T23:37:51.321Z,94405.20
2023-03-29T23:40:18.936Z,94405.20
2023-03-29T23:42:48.448Z,94402.40
2023-03-29T23:45:16.091Z,94396.40
2023-03-29T23:47:44.153Z,94405.40
2023-03-29T23:50:13.306Z,94405.00
2023-03-29T23:52:41.155Z,94403.60
2023-03-29T23:55:08.761Z,94404.80
2023-03-29T23:57:37.199Z,94405.80
